Time;durP1;ratioP1;P1;durP2;ratioP2;P2;SDS_P1;SDS_P2;PMS_P1;PMS_P2;Temp;Humidity;BMP_temperature;BMP_pressure;BME280_temperature;BME280_humidity;BME280_pressure;Samples;Min_cycle;Max_cycle;Signal;HPM_P1;HPM_P2
2022/07/28 00:02:23;;;;;;;3.90;2.55;;;;;;;;;;5070160;28;20028;-68
2022/07/28 00:04:49;;;;;;;5.50;2.30;;;;;;;;;;5065159;28;20083;-68
2022/07/28 00:07:15;;;;;;;6.35;2.42;;;;;;;;;;5060826;28;20032;-67
2022/07/28 00:09:41;;;;;;;5.30;2.45;;;;;;;;;;5063698;28;20043;-67
2022/07/28 00:12:07;;;;;;;4.32;1.92;;;;;;;;;;5064178;28;20059;-67
2022/07/28 00:14:34;;;;;;;2.80;2.03;;;;;;;;;;5068806;28;20039;-67
2022/07/28 00:17:00;;;;;;;3.67;1.90;;;;;;;;;;5066955;28;20025;-67
2022/07/28 00:19:26;;;;;;;3.05;1.90;;;;;;;;;;5067885;28;20056;-67
2022/07/28 00:21:52;;;;;;;3.83;2.20;;;;;;;;;;5067251;28;20028;-67
2022/07/28 00:24:18;;;;;;;4.25;2.28;;;;;;;;;;5070519;28;20024;-66
2022/07/28 00:26:44;;;;;;;5.90;2.15;;;;;;;;;;5070847;28;20074;-67
2022/07/28 00:29:10;;;;;;;6.68;1.95;;;;;;;;;;5068420;28;20048;-67
2022/07/28 00:31:36;;;;;;;3.58;2.20;;;;;;;;;;5069175;28;20054;-67
2022/07/28 00:34:02;;;;;;;4.25;2.38;;;;;;;;;;5064691;28;20021;-67
2022/07/28 00:36:29;;;;;;;6.60;2.72;;;;;;;;;;5068499;28;20074;-67
2022/07/28 00:38:55;;;;;;;3.63;2.28;;;;;;;;;;5066385;28;20593;-67
2022/07/28 00:41:21;;;;;;;2.20;1.80;;;;;;;;;;5068665;28;20021;-67
2022/07/28 00:43:49;;;;;;;4.47;2.28;;;;;;;;;;5066365;28;20643;-67
2022/07/28 00:46:17;;;;;;;5.32;2.30;;;;;;;;;;5064104;28;20082;-67
2022/07/28 00:48:44;;;;;;;4.30;2.22;;;;;;;;;;5066812;28;20028;-67
2022/07/28 00:51:10;;;;;;;5.57;2.30;;;;;;;;;;5066332;28;20474;-67
2022/07/28 00:53:38;;;;;;;4.53;1.75;;;;;;;;;;5062970;28;20056;-67
2022/07/28 00:56:04;;;;;;;2.83;2.00;;;;;;;;;;5066036;28;20017;-67
2022/07/28 00:58:31;;;;;;;4.80;2.30;;;;;;;;;;5067194;28;20474;-67
2022/07/28 01:00:57;;;;;;;2.22;1.50;;;;;;;;;;5065985;28;20032;-67
2022/07/28 01:03:24;;;;;;;3.30;2.30;;;;;;;;;;5064198;28;20025;-66
2022/07/28 01:05:53;;;;;;;4.35;2.05;;;;;;;;;;5067226;28;20024;-67
2022/07/28 01:08:19;;;;;;;3.72;2.00;;;;;;;;;;5066921;28;21157;-66
2022/07/28 01:11:04;;;;;;;6.22;2.03;;;;;;;;;;5063026;28;20059;-66
2022/07/28 01:13:36;;;;;;;2.65;1.90;;;;;;;;;;5066515;28;20028;-66
2022/07/28 01:16:03;;;;;;;5.55;1.92;;;;;;;;;;5079225;28;20029;-67
2022/07/28 01:18:33;;;;;;;4.13;1.75;;;;;;;;;;5063906;28;20050;-66
2022/07/28 01:21:04;;;;;;;4.07;2.20;;;;;;;;;;5068644;28;20440;-66
2022/07/28 01:23:43;;;;;;;5.95;2.70;;;;;;;;;;5067825;28;20039;-66
2022/07/28 01:26:19;;;;;;;4.47;2.33;;;;;;;;;;5067404;28;20033;-66
2022/07/28 01:28:46;;;;;;;2.40;1.90;;;;;;;;;;5064916;28;20505;-67
2022/07/28 01:31:14;;;;;;;6.78;3.55;;;;;;;;;;5070174;28;20044;-67
2022/07/28 01:33:47;;;;;;;3.35;2.42;;;;;;;;;;5066020;28;20044;-67
2022/07/28 01:36:16;;;;;;;3.38;2.10;;;;;;;;;;5065121;28;20013;-67
2022/07/28 01:38:42;;;;;;;3.67;1.98;;;;;;;;;;5069839;28;20039;-67
2022/07/28 01:41:11;;;;;;;3.53;1.88;;;;;;;;;;5065311;28;20036;-66
2022/07/28 01:43:38;;;;;;;4.28;2.30;;;;;;;;;;5064813;28;20036;-67
2022/07/28 01:46:04;;;;;;;3.75;1.92;;;;;;;;;;5067316;28;20183;-67
2022/07/28 01:48:32;;;;;;;4.72;2.10;;;;;;;;;;5067060;28;20127;-66
2022/07/28 01:50:59;;;;;;;8.18;2.67;;;;;;;;;;5065916;28;20047;-66
2022/07/28 01:53:26;;;;;;;5.93;2.45;;;;;;;;;;5065648;28;20029;-66
2022/07/28 01:55:52;;;;;;;9.40;1.90;;;;;;;;;;5064991;28;20028;-67
2022/07/28 01:58:20;;;;;;;5.57;2.60;;;;;;;;;;5079597;28;20092;-66
2022/07/28 02:00:48;;;;;;;4.20;2.58;;;;;;;;;;5066844;28;20028;-67
2022/07/28 02:03:15;;;;;;;5.20;3.13;;;;;;;;;;5069387;28;20040;-67
2022/07/28 02:05:41;;;;;;;3.55;2.20;;;;;;;;;;5069629;28;20036;-67
2022/07/28 02:08:09;;;;;;;5.32;2.45;;;;;;;;;;5064565;28;20088;-67
2022/07/28 02:10:36;;;;;;;2.88;2.15;;;;;;;;;;5069961;28;20451;-67
2022/07/28 02:13:03;;;;;;;3.70;2.55;;;;;;;;;;5067063;28;20024;-67
2022/07/28 02:15:31;;;;;;;5.05;2.63;;;;;;;;;;5055582;28;20029;-67
2022/07/28 02:17:57;;;;;;;4.45;2.72;;;;;;;;;;5066396;28;20554;-67
2022/07/28 02:20:23;;;;;;;6.80;3.08;;;;;;;;;;5069183;28;20513;-67
2022/07/28 02:22:50;;;;;;;4.22;2.50;;;;;;;;;;5075850;28;20067;-67
2022/07/28 02:25:16;;;;;;;5.60;3.00;;;;;;;;;;5067241;28;20035;-67
2022/07/28 02:27:46;;;;;;;6.32;2.75;;;;;;;;;;5072702;28;20044;-68
2022/07/28 02:30:24;;;;;;;11.68;2.78;;;;;;;;;;5070148;28;20027;-68
2022/07/28 02:32:55;;;;;;;2.45;2.22;;;;;;;;;;5068832;28;20017;-66
2022/07/28 02:35:33;;;;;;;3.13;2.50;;;;;;;;;;5070928;28;20016;-66
2022/07/28 02:38:18;;;;;;;7.03;3.15;;;;;;;;;;5069090;28;20040;-66
2022/07/28 02:40:46;;;;;;;5.55;2.67;;;;;;;;;;5070369;28;20490;-66
2022/07/28 02:43:18;;;;;;;6.22;2.53;;;;;;;;;;5064563;28;20017;-66
2022/07/28 02:45:47;;;;;;;5.63;2.45;;;;;;;;;;5071889;28;20051;-67
2022/07/28 02:48:15;;;;;;;9.50;2.83;;;;;;;;;;5069210;28;20029;-67
2022/07/28 02:50:42;;;;;;;5.20;2.45;;;;;;;;;;5071332;28;20027;-67
2022/07/28 02:53:08;;;;;;;4.38;2.30;;;;;;;;;;5072841;28;20024;-67
2022/07/28 02:55:35;;;;;;;2.90;2.28;;;;;;;;;;5067901;28;20032;-67
2022/07/28 02:58:04;;;;;;;3.63;2.05;;;;;;;;;;5071026;28;20033;-67
2022/07/28 03:00:30;;;;;;;3.00;1.88;;;;;;;;;;5068454;28;20021;-67
2022/07/28 03:02:57;;;;;;;6.20;2.42;;;;;;;;;;5066972;28;20506;-67
2022/07/28 03:05:23;;;;;;;4.72;2.40;;;;;;;;;;5073838;28;20488;-67
2022/07/28 03:07:51;;;;;;;5.88;2.20;;;;;;;;;;5071749;28;20036;-67
2022/07/28 03:10:18;;;;;;;4.28;2.15;;;;;;;;;;5063628;28;20047;-67
2022/07/28 03:12:45;;;;;;;7.05;2.42;;;;;;;;;;5067270;28;20020;-67
2022/07/28 03:15:11;;;;;;;4.85;2.40;;;;;;;;;;5066369;28;20029;-67
2022/07/28 03:17:37;;;;;;;5.88;1.88;;;;;;;;;;5068031;28;20024;-66
2022/07/28 03:20:03;;;;;;;3.22;2.10;;;;;;;;;;5065992;28;20402;-67
2022/07/28 03:22:29;;;;;;;3.72;1.75;;;;;;;;;;5070003;28;20519;-67
2022/07/28 03:24:56;;;;;;;4.10;2.33;;;;;;;;;;5073474;28;20095;-66
2022/07/28 03:27:27;;;;;;;7.63;2.40;;;;;;;;;;5069775;28;20131;-66
2022/07/28 03:30:02;;;;;;;3.90;2.08;;;;;;;;;;5069672;28;20041;-66
2022/07/28 03:32:29;;;;;;;8.13;2.38;;;;;;;;;;5068333;28;20024;-67
2022/07/28 03:34:55;;;;;;;4.78;2.38;;;;;;;;;;5071007;28;20019;-66
2022/07/28 03:37:42;;;;;;;2.65;2.13;;;;;;;;;;5067240;28;20028;-66
2022/07/28 03:40:12;;;;;;;3.20;2.25;;;;;;;;;;5067580;28;20040;-67
2022/07/28 03:42:40;;;;;;;5.53;2.22;;;;;;;;;;5068390;28;20036;-67
2022/07/28 03:45:06;;;;;;;5.72;2.40;;;;;;;;;;5071371;28;20098;-67
2022/07/28 03:47:32;;;;;;;5.78;2.33;;;;;;;;;;5067962;28;20033;-67
2022/07/28 03:49:58;;;;;;;4.10;2.47;;;;;;;;;;5067472;28;20504;-67
2022/07/28 03:52:25;;;;;;;3.40;2.30;;;;;;;;;;5063090;28;20035;-66
2022/07/28 03:54:51;;;;;;;3.13;1.80;;;;;;;;;;5056174;28;20029;-66
2022/07/28 03:57:17;;;;;;;3.33;2.10;;;;;;;;;;5065472;28;20035;-67
2022/07/28 03:59:43;;;;;;;3.67;2.10;;;;;;;;;;5065709;28;20031;-66
2022/07/28 04:02:09;;;;;;;2.88;2.20;;;;;;;;;;5064975;28;20025;-67
2022/07/28 04:04:35;;;;;;;5.32;2.40;;;;;;;;;;5071664;28;20020;-67
2022/07/28 04:07:02;;;;;;;5.30;2.60;;;;;;;;;;5069723;28;20028;-66
2022/07/28 04:09:28;;;;;;;5.63;2.50;;;;;;;;;;5069385;28;20468;-67
2022/07/28 04:11:54;;;;;;;3.92;1.95;;;;;;;;;;5069954;28;20032;-66
2022/07/28 04:14:20;;;;;;;8.77;2.33;;;;;;;;;;5069207;28;20021;-67
2022/07/28 04:16:46;;;;;;;7.47;2.95;;;;;;;;;;5062484;28;20509;-67
2022/07/28 04:19:13;;;;;;;7.93;2.10;;;;;;;;;;5061764;28;20028;-67
2022/07/28 04:21:39;;;;;;;3.75;2.08;;;;;;;;;;5069880;28;20506;-67
2022/07/28 04:24:06;;;;;;;4.00;2.38;;;;;;;;;;5064473;28;20056;-67
2022/07/28 04:26:32;;;;;;;3.20;2.45;;;;;;;;;;5071044;28;20029;-67
2022/07/28 04:28:58;;;;;;;3.22;2.53;;;;;;;;;;5068322;28;20525;-67
2022/07/28 04:31:24;;;;;;;6.63;2.38;;;;;;;;;;5067342;28;20032;-67
2022/07/28 04:33:50;;;;;;;5.68;2.47;;;;;;;;;;5071509;28;20064;-67
2022/07/28 04:36:17;;;;;;;4.10;2.63;;;;;;;;;;5067517;28;20085;-67
2022/07/28 04:38:43;;;;;;;4.30;2.45;;;;;;;;;;5070615;28;20025;-67
2022/07/28 04:41:09;;;;;;;4.38;2.10;;;;;;;;;;5071799;28;20024;-67
2022/07/28 04:43:36;;;;;;;5.20;2.15;;;;;;;;;;5070439;28;20032;-67
2022/07/28 04:46:02;;;;;;;2.97;2.17;;;;;;;;;;5067360;28;20040;-66
2022/07/28 04:48:28;;;;;;;5.95;2.20;;;;;;;;;;5066926;28;20035;-66
2022/07/28 04:50:54;;;;;;;4.93;2.17;;;;;;;;;;5070251;28;20039;-66
2022/07/28 04:53:21;;;;;;;5.10;2.45;;;;;;;;;;5067289;28;20085;-66
2022/07/28 04:55:48;;;;;;;4.70;2.22;;;;;;;;;;5062478;28;20025;-67
2022/07/28 04:58:17;;;;;;;3.05;2.47;;;;;;;;;;5065621;28;20108;-66
2022/07/28 05:00:44;;;;;;;5.70;2.42;;;;;;;;;;5059780;28;20377;-66
2022/07/28 05:03:11;;;;;;;3.95;2.47;;;;;;;;;;5066995;28;20493;-66
2022/07/28 05:05:37;;;;;;;5.63;2.60;;;;;;;;;;5063569;28;20025;-67
2022/07/28 05:08:03;;;;;;;5.63;2.35;;;;;;;;;;5061804;28;20509;-66
2022/07/28 05:10:29;;;;;;;4.45;2.70;;;;;;;;;;5070266;28;20534;-67
2022/07/28 05:12:56;;;;;;;3.05;2.20;;;;;;;;;;5071257;28;20024;-67
2022/07/28 05:15:23;;;;;;;5.40;2.67;;;;;;;;;;5064475;28;20036;-66
2022/07/28 05:17:49;;;;;;;4.10;2.55;;;;;;;;;;5067894;28;20017;-67
2022/07/28 05:20:16;;;;;;;4.75;2.67;;;;;;;;;;5067141;28;20024;-66
2022/07/28 05:22:43;;;;;;;5.82;2.70;;;;;;;;;;5070751;28;20086;-67
2022/07/28 05:25:27;;;;;;;6.68;2.50;;;;;;;;;;5070175;28;20024;-67
2022/07/28 05:27:53;;;;;;;5.80;2.50;;;;;;;;;;5069034;28;20101;-69
2022/07/28 05:30:20;;;;;;;7.07;2.83;;;;;;;;;;5066111;28;20040;-68
2022/07/28 05:32:47;;;;;;;5.20;3.50;;;;;;;;;;5067601;28;20024;-66
2022/07/28 05:35:14;;;;;;;8.15;2.85;;;;;;;;;;5065903;28;20028;-67
2022/07/28 05:37:40;;;;;;;8.80;3.38;;;;;;;;;;5064754;28;20036;-68
2022/07/28 05:40:10;;;;;;;5.38;2.97;;;;;;;;;;5067614;28;20017;-67
2022/07/28 05:42:36;;;;;;;7.95;3.17;;;;;;;;;;5069364;28;20028;-67
2022/07/28 05:45:07;;;;;;;12.05;3.15;;;;;;;;;;5061789;28;20123;-67
2022/07/28 05:47:46;;;;;;;7.22;3.17;;;;;;;;;;5068740;28;20040;-67
2022/07/28 05:50:14;;;;;;;10.27;3.00;;;;;;;;;;5068469;28;20119;-67
2022/07/28 05:52:40;;;;;;;12.85;3.20;;;;;;;;;;5067137;28;20450;-68
2022/07/28 05:55:06;;;;;;;6.45;3.13;;;;;;;;;;5064446;28;20071;-68
2022/07/28 05:57:33;;;;;;;10.65;2.70;;;;;;;;;;5063766;28;20095;-69
2022/07/28 05:59:59;;;;;;;7.25;3.13;;;;;;;;;;5065027;28;20027;-66
2022/07/28 06:02:25;;;;;;;9.35;3.13;;;;;;;;;;5065566;28;20048;-66
2022/07/28 06:04:51;;;;;;;9.25;3.72;;;;;;;;;;5060251;28;20029;-66
2022/07/28 06:07:17;;;;;;;6.03;3.55;;;;;;;;;;5061179;28;20118;-66
2022/07/28 06:09:43;;;;;;;9.45;4.18;;;;;;;;;;5052936;28;20500;-65
2022/07/28 06:12:10;;;;;;;6.45;3.15;;;;;;;;;;5063214;28;20063;-65
2022/07/28 06:14:36;;;;;;;6.80;2.70;;;;;;;;;;5065763;28;20027;-65
2022/07/28 06:17:02;;;;;;;6.25;2.85;;;;;;;;;;5068835;28;20028;-65
2022/07/28 06:19:28;;;;;;;5.85;2.95;;;;;;;;;;5065664;28;20024;-65
2022/07/28 06:21:54;;;;;;;10.85;3.20;;;;;;;;;;5066403;28;20571;-65
2022/07/28 06:24:20;;;;;;;6.63;3.00;;;;;;;;;;5061792;28;20040;-65
2022/07/28 06:26:46;;;;;;;5.15;3.05;;;;;;;;;;5061186;28;20544;-65
2022/07/28 06:29:12;;;;;;;10.23;3.90;;;;;;;;;;5068563;28;20051;-66
2022/07/28 06:31:39;;;;;;;7.38;3.42;;;;;;;;;;5067558;28;20544;-64
2022/07/28 06:34:05;;;;;;;5.68;3.53;;;;;;;;;;5065770;28;20115;-64
2022/07/28 06:36:31;;;;;;;9.55;3.65;;;;;;;;;;5064453;28;20095;-63
2022/07/28 06:38:58;;;;;;;5.53;3.75;;;;;;;;;;5065771;28;20024;-64
2022/07/28 06:41:24;;;;;;;8.15;4.20;;;;;;;;;;5060709;28;20402;-64
2022/07/28 06:43:51;;;;;;;8.95;4.75;;;;;;;;;;5064835;28;20139;-63
2022/07/28 06:46:18;;;;;;;5.93;4.00;;;;;;;;;;5060677;28;20490;-64
2022/07/28 06:48:44;;;;;;;7.70;4.43;;;;;;;;;;5064312;28;20059;-65
2022/07/28 06:51:11;;;;;;;7.82;4.70;;;;;;;;;;5063190;28;20027;-63
2022/07/28 06:53:37;;;;;;;8.93;4.72;;;;;;;;;;5062104;28;20031;-65
2022/07/28 06:56:04;;;;;;;11.23;4.68;;;;;;;;;;5065016;28;20020;-66
2022/07/28 06:58:30;;;;;;;10.20;4.75;;;;;;;;;;5068471;28;20028;-65
2022/07/28 07:00:57;;;;;;;11.85;5.50;;;;;;;;;;5069649;28;20025;-66
2022/07/28 07:03:23;;;;;;;19.88;5.72;;;;;;;;;;5068394;28;20099;-65
2022/07/28 07:05:49;;;;;;;12.93;4.75;;;;;;;;;;5062616;28;20021;-66
2022/07/28 07:08:15;;;;;;;13.20;4.95;;;;;;;;;;5063133;28;20020;-66
2022/07/28 07:10:41;;;;;;;12.20;5.50;;;;;;;;;;5068320;28;20029;-66
2022/07/28 07:13:07;;;;;;;14.43;6.22;;;;;;;;;;5073162;28;20078;-66
2022/07/28 07:15:33;;;;;;;9.52;4.90;;;;;;;;;;5061575;28;20033;-66
2022/07/28 07:17:59;;;;;;;12.85;5.78;;;;;;;;;;5061358;28;20167;-66
2022/07/28 07:20:26;;;;;;;14.93;4.90;;;;;;;;;;5066073;28;20036;-65
2022/07/28 07:22:53;;;;;;;13.43;5.03;;;;;;;;;;5070881;28;20173;-66
2022/07/28 07:25:19;;;;;;;10.57;4.90;;;;;;;;;;5070149;28;20113;-66
2022/07/28 07:27:46;;;;;;;9.77;5.15;;;;;;;;;;5069395;28;20469;-66
2022/07/28 07:30:13;;;;;;;14.60;5.55;;;;;;;;;;5069403;28;20028;-66
2022/07/28 07:32:39;;;;;;;14.07;4.80;;;;;;;;;;5063904;28;20090;-65
2022/07/28 07:35:06;;;;;;;11.93;5.28;;;;;;;;;;5069058;28;20800;-66
2022/07/28 07:37:32;;;;;;;11.43;5.10;;;;;;;;;;5067847;28;20020;-66
2022/07/28 07:39:59;;;;;;;13.88;5.32;;;;;;;;;;5069028;28;20058;-66
2022/07/28 07:42:25;;;;;;;14.18;5.53;;;;;;;;;;5066948;28;20028;-66
2022/07/28 07:44:51;;;;;;;12.68;5.88;;;;;;;;;;5071683;28;20107;-66
2022/07/28 07:47:18;;;;;;;10.95;6.07;;;;;;;;;;5069341;28;20489;-66
2022/07/28 07:49:44;;;;;;;12.60;5.88;;;;;;;;;;5079743;28;20033;-67
2022/07/28 07:52:10;;;;;;;10.82;5.95;;;;;;;;;;5067350;28;20020;-67
2022/07/28 07:54:36;;;;;;;11.40;4.85;;;;;;;;;;5064807;28;20494;-67
2022/07/28 07:57:03;;;;;;;12.35;4.93;;;;;;;;;;5064816;28;20031;-67
2022/07/28 07:59:29;;;;;;;10.85;5.03;;;;;;;;;;5068901;28;20082;-67
2022/07/28 08:01:55;;;;;;;7.45;5.38;;;;;;;;;;5069219;28;20024;-67
2022/07/28 08:04:22;;;;;;;9.13;5.07;;;;;;;;;;5065180;28;20028;-67
2022/07/28 08:06:49;;;;;;;12.30;5.78;;;;;;;;;;5063685;28;20052;-67
2022/07/28 08:09:15;;;;;;;11.18;5.07;;;;;;;;;;5067579;28;20421;-67
2022/07/28 08:11:41;;;;;;;11.57;5.57;;;;;;;;;;5069442;28;20021;-67
2022/07/28 08:14:08;;;;;;;15.65;6.13;;;;;;;;;;5069194;28;20051;-67
2022/07/28 08:16:34;;;;;;;14.52;5.72;;;;;;;;;;5070293;28;20024;-67
2022/07/28 08:19:00;;;;;;;16.48;6.03;;;;;;;;;;5066119;28;20024;-67
2022/07/28 08:21:26;;;;;;;16.10;5.70;;;;;;;;;;5069080;28;20020;-67
2022/07/28 08:23:54;;;;;;;12.27;5.18;;;;;;;;;;5069507;28;20033;-67
2022/07/28 08:26:24;;;;;;;19.80;5.50;;;;;;;;;;5069055;28;20085;-67
2022/07/28 08:28:50;;;;;;;15.02;5.45;;;;;;;;;;5069968;28;20049;-72
2022/07/28 08:31:20;;;;;;;15.10;4.82;;;;;;;;;;5059271;28;20032;-72
2022/07/28 08:33:47;;;;;;;10.13;4.97;;;;;;;;;;5057638;28;20769;-73
2022/07/28 08:36:14;;;;;;;13.07;4.88;;;;;;;;;;5064014;28;20032;-73
2022/07/28 08:38:40;;;;;;;12.63;5.75;;;;;;;;;;5060612;28;20048;-73
2022/07/28 08:41:08;;;;;;;11.13;6.13;;;;;;;;;;5048431;28;20025;-74
2022/07/28 08:43:38;;;;;;;11.90;5.90;;;;;;;;;;5063463;28;20081;-73
2022/07/28 08:46:05;;;;;;;28.75;5.97;;;;;;;;;;5064375;28;20056;-73
2022/07/28 08:48:33;;;;;;;12.32;5.88;;;;;;;;;;5056366;28;20375;-73
2022/07/28 08:51:00;;;;;;;14.20;5.28;;;;;;;;;;5066400;28;20027;-73
2022/07/28 08:53:28;;;;;;;15.02;5.70;;;;;;;;;;5061110;28;20040;-74
2022/07/28 08:55:55;;;;;;;10.98;4.85;;;;;;;;;;5063452;28;20036;-73
2022/07/28 08:58:21;;;;;;;13.63;5.50;;;;;;;;;;5067363;28;20047;-74
2022/07/28 09:00:48;;;;;;;9.68;5.22;;;;;;;;;;5064859;28;20031;-73
2022/07/28 09:03:14;;;;;;;11.35;4.30;;;;;;;;;;5060344;28;20587;-73
2022/07/28 09:05:43;;;;;;;14.55;5.13;;;;;;;;;;5067989;28;20020;-73
2022/07/28 09:08:11;;;;;;;9.77;4.20;;;;;;;;;;5064658;28;20067;-75
2022/07/28 09:10:37;;;;;;;13.07;4.53;;;;;;;;;;5062973;28;20029;-74
2022/07/28 09:13:03;;;;;;;11.80;3.50;;;;;;;;;;5062000;28;20112;-75
2022/07/28 09:15:31;;;;;;;7.38;2.45;;;;;;;;;;5061292;28;20115;-74
2022/07/28 09:17:57;;;;;;;6.00;2.10;;;;;;;;;;5064348;28;20024;-74
2022/07/28 09:20:23;;;;;;;8.55;2.40;;;;;;;;;;5067474;28;20029;-74
2022/07/28 09:22:57;;;;;;;3.90;1.60;;;;;;;;;;5063618;28;20487;-75
2022/07/28 09:25:23;;;;;;;7.40;2.30;;;;;;;;;;5060771;28;20025;-75
2022/07/28 09:27:50;;;;;;;5.30;2.30;;;;;;;;;;5070739;28;20079;-75
2022/07/28 09:30:19;;;;;;;5.03;1.65;;;;;;;;;;5063168;28;20474;-75
2022/07/28 09:32:45;;;;;;;10.82;2.15;;;;;;;;;;5061055;28;20079;-76
2022/07/28 09:35:19;;;;;;;4.55;2.08;;;;;;;;;;5062081;28;20017;-75
2022/07/28 09:37:45;;;;;;;7.63;2.00;;;;;;;;;;5065329;28;20379;-75
2022/07/28 09:40:12;;;;;;;5.05;2.05;;;;;;;;;;5067872;28;20028;-75
2022/07/28 09:42:58;;;;;;;9.93;1.95;;;;;;;;;;5061149;28;20028;-76
2022/07/28 09:45:27;;;;;;;5.22;1.95;;;;;;;;;;5061133;28;20448;-75
2022/07/28 09:48:12;;;;;;;7.65;2.00;;;;;;;;;;5066572;28;20574;-75
2022/07/28 09:50:40;;;;;;;8.55;2.35;;;;;;;;;;5055714;28;20036;-76
2022/07/28 09:53:26;;;;;;;14.18;3.00;;;;;;;;;;5062179;28;20079;-76
2022/07/28 09:55:57;;;;;;;9.25;2.72;;;;;;;;;;5055620;28;20025;-76
2022/07/28 09:58:23;;;;;;;14.30;3.47;;;;;;;;;;5061834;28;20044;-75
2022/07/28 10:00:49;;;;;;;9.00;2.80;;;;;;;;;;5057835;28;20021;-76
2022/07/28 10:03:25;;;;;;;6.63;2.47;;;;;;;;;;5059214;28;20032;-76
2022/07/28 10:05:52;;;;;;;9.02;2.55;;;;;;;;;;5062494;28;20020;-76
2022/07/28 10:08:18;;;;;;;11.95;2.20;;;;;;;;;;5063535;28;20048;-76
2022/07/28 10:10:58;;;;;;;8.95;2.25;;;;;;;;;;5063731;28;20039;-75
2022/07/28 10:13:24;;;;;;;8.13;1.73;;;;;;;;;;5066236;28;20044;-75
2022/07/28 10:16:11;;;;;;;7.75;1.80;;;;;;;;;;5064180;28;20143;-75
2022/07/28 10:18:41;;;;;;;5.85;1.85;;;;;;;;;;5059858;28;20064;-76
2022/07/28 10:21:08;;;;;;;9.18;2.42;;;;;;;;;;5069330;28;20393;-76
2022/07/28 10:23:38;;;;;;;8.48;2.20;;;;;;;;;;5067181;28;20564;-76
2022/07/28 10:26:11;;;;;;;6.22;2.13;;;;;;;;;;5064070;28;20033;-75
2022/07/28 10:28:41;;;;;;;7.32;1.90;;;;;;;;;;5059089;28;20037;-74
2022/07/28 10:31:10;;;;;;;7.93;2.13;;;;;;;;;;5061839;28;20020;-74
2022/07/28 10:33:43;;;;;;;6.65;1.77;;;;;;;;;;5064722;28;20029;-74
2022/07/28 10:36:10;;;;;;;9.45;1.80;;;;;;;;;;5063423;28;20100;-74
2022/07/28 10:38:36;;;;;;;6.40;2.30;;;;;;;;;;5066673;28;20036;-73
2022/07/28 10:41:03;;;;;;;5.13;2.05;;;;;;;;;;5068973;28;20017;-74
2022/07/28 10:43:31;;;;;;;3.08;1.50;;;;;;;;;;5066593;28;20203;-74
2022/07/28 10:46:01;;;;;;;7.90;1.73;;;;;;;;;;5065150;28;20017;-74
2022/07/28 10:48:27;;;;;;;17.02;2.40;;;;;;;;;;5067659;28;20034;-74
2022/07/28 10:50:54;;;;;;;6.72;1.58;;;;;;;;;;5074420;28;20481;-73
2022/07/28 10:53:30;;;;;;;4.15;1.58;;;;;;;;;;5069267;28;20062;-73
2022/07/28 10:55:59;;;;;;;5.72;2.15;;;;;;;;;;5069117;28;20028;-74
2022/07/28 10:58:34;;;;;;;4.60;1.40;;;;;;;;;;5069857;28;20033;-73
2022/07/28 11:01:00;;;;;;;7.95;2.28;;;;;;;;;;5070863;28;20073;-73
2022/07/28 11:03:38;;;;;;;8.10;1.60;;;;;;;;;;5068756;28;20052;-73
2022/07/28 11:06:23;;;;;;;4.05;1.20;;;;;;;;;;5067546;28;20103;-74
2022/07/28 11:08:51;;;;;;;4.18;1.45;;;;;;;;;;5064568;28;20020;-73
2022/07/28 11:11:37;;;;;;;3.65;1.50;;;;;;;;;;5062879;28;20025;-74
2022/07/28 11:14:32;;;;;;;3.03;1.23;;;;;;;;;;5060799;28;20098;-75
2022/07/28 11:17:01;;;;;;;7.43;1.75;;;;;;;;;;5063689;28;20037;-74
2022/07/28 11:19:28;;;;;;;4.40;2.25;;;;;;;;;;5062811;28;20064;-74
2022/07/28 11:22:13;;;;;;;3.30;1.85;;;;;;;;;;5072366;28;20512;-74
2022/07/28 11:25:01;;;;;;;5.07;1.50;;;;;;;;;;5065126;28;20020;-74
2022/07/28 11:27:42;;;;;;;7.13;1.95;;;;;;;;;;5065307;28;20068;-73
2022/07/28 11:30:09;;;;;;;5.88;1.80;;;;;;;;;;5072030;28;20355;-73
2022/07/28 11:32:52;;;;;;;4.20;2.10;;;;;;;;;;5065798;28;20490;-73
2022/07/28 11:35:22;;;;;;;4.50;1.60;;;;;;;;;;5068618;28;20565;-75
2022/07/28 11:38:01;;;;;;;10.82;2.17;;;;;;;;;;5071832;28;20025;-75
2022/07/28 11:40:31;;;;;;;3.97;1.48;;;;;;;;;;5070061;28;20043;-75
2022/07/28 11:43:16;;;;;;;3.53;1.48;;;;;;;;;;5069823;28;20482;-74
2022/07/28 11:45:42;;;;;;;6.13;1.60;;;;;;;;;;5065042;28;20040;-74
2022/07/28 11:48:15;;;;;;;5.95;1.45;;;;;;;;;;5067370;28;20079;-75
2022/07/28 11:50:42;;;;;;;4.32;1.85;;;;;;;;;;5068657;28;20033;-76
2022/07/28 11:53:08;;;;;;;8.27;1.60;;;;;;;;;;5071791;28;20028;-76
2022/07/28 11:55:34;;;;;;;2.58;1.20;;;;;;;;;;5070543;28;20035;-76
2022/07/28 11:58:01;;;;;;;5.38;2.03;;;;;;;;;;5067749;28;20060;-76
2022/07/28 12:00:28;;;;;;;7.70;1.65;;;;;;;;;;5072856;28;20042;-75
2022/07/28 12:02:56;;;;;;;6.97;1.73;;;;;;;;;;5067166;28;20052;-76
2022/07/28 12:05:22;;;;;;;5.97;2.00;;;;;;;;;;5069416;28;20029;-76
2022/07/28 12:07:52;;;;;;;7.30;1.40;;;;;;;;;;5066936;28;20095;-76
2022/07/28 12:10:22;;;;;;;5.55;1.40;;;;;;;;;;5071361;28;20111;-76
2022/07/28 12:12:56;;;;;;;5.05;2.03;;;;;;;;;;5068245;28;20524;-76
2022/07/28 12:15:22;;;;;;;9.93;1.55;;;;;;;;;;5071068;28;20536;-77
2022/07/28 12:17:49;;;;;;;5.25;1.67;;;;;;;;;;5068971;28;20104;-77
2022/07/28 12:20:16;;;;;;;7.75;2.42;;;;;;;;;;5070817;28;20063;-77
2022/07/28 12:23:01;;;;;;;6.10;1.25;;;;;;;;;;5067578;28;20024;-77
2022/07/28 12:25:27;;;;;;;9.43;2.10;;;;;;;;;;5072788;28;20510;-77
2022/07/28 12:27:54;;;;;;;2.25;1.08;;;;;;;;;;5072387;28;20102;-76
2022/07/28 12:30:21;;;;;;;3.10;0.88;;;;;;;;;;5067063;28;20033;-74
2022/07/28 12:32:47;;;;;;;3.35;1.13;;;;;;;;;;5067090;28;20020;-74
2022/07/28 12:35:13;;;;;;;4.28;1.38;;;;;;;;;;5070549;28;20033;-74
2022/07/28 12:37:42;;;;;;;6.03;1.65;;;;;;;;;;5071243;28;20125;-73
2022/07/28 12:40:11;;;;;;;6.47;1.52;;;;;;;;;;5068451;28;20027;-78
2022/07/28 12:42:37;;;;;;;3.60;1.30;;;;;;;;;;5078204;28;20090;-78
2022/07/28 12:45:06;;;;;;;3.50;1.50;;;;;;;;;;5069126;28;20066;-78
2022/07/28 12:47:33;;;;;;;3.35;1.30;;;;;;;;;;5068877;28;20028;-76
2022/07/28 12:50:11;;;;;;;8.82;1.70;;;;;;;;;;5069768;28;20032;-77
2022/07/28 12:52:37;;;;;;;4.65;1.63;;;;;;;;;;5070679;28;20036;-77
2022/07/28 12:55:07;;;;;;;6.70;1.90;;;;;;;;;;5069686;28;20029;-77
2022/07/28 12:57:39;;;;;;;4.75;1.75;;;;;;;;;;5071642;28;20033;-76
2022/07/28 13:00:06;;;;;;;6.13;1.55;;;;;;;;;;5071894;28;20064;-77
2022/07/28 13:02:36;;;;;;;7.22;1.80;;;;;;;;;;5066617;28;20032;-77
2022/07/28 13:05:02;;;;;;;6.55;1.65;;;;;;;;;;5068599;28;20024;-77
2022/07/28 13:07:30;;;;;;;6.80;1.33;;;;;;;;;;5069251;28;20039;-78
2022/07/28 13:10:05;;;;;;;4.43;2.03;;;;;;;;;;5065870;28;20375;-78
2022/07/28 13:12:31;;;;;;;9.20;2.28;;;;;;;;;;5072354;28;20037;-79
2022/07/28 13:14:58;;;;;;;5.57;2.00;;;;;;;;;;5071102;28;20024;-76
2022/07/28 13:17:31;;;;;;;3.72;1.40;;;;;;;;;;5069551;28;20086;-75
2022/07/28 13:20:08;;;;;;;9.15;2.45;;;;;;;;;;5065185;28;20090;-77
2022/07/28 13:22:35;;;;;;;5.10;1.75;;;;;;;;;;5069897;28;20044;-76
2022/07/28 13:25:01;;;;;;;5.60;1.50;;;;;;;;;;5071657;28;20020;-76
2022/07/28 13:27:28;;;;;;;9.25;1.92;;;;;;;;;;5070801;28;20044;-77
2022/07/28 13:29:54;;;;;;;5.07;1.77;;;;;;;;;;5063942;28;20025;-77
2022/07/28 13:32:20;;;;;;;2.40;1.48;;;;;;;;;;5066675;28;20079;-77
2022/07/28 13:34:46;;;;;;;2.90;1.42;;;;;;;;;;5070041;28;20020;-78
2022/07/28 13:37:13;;;;;;;6.50;1.60;;;;;;;;;;5069442;28;20029;-77
2022/07/28 13:39:39;;;;;;;2.05;1.25;;;;;;;;;;5069811;28;20028;-77
2022/07/28 13:42:06;;;;;;;3.15;1.30;;;;;;;;;;5068504;28;20115;-76
2022/07/28 13:44:33;;;;;;;4.38;1.50;;;;;;;;;;5064271;28;20033;-78
2022/07/28 13:47:00;;;;;;;7.65;1.60;;;;;;;;;;5069081;28;20025;-78
2022/07/28 13:49:26;;;;;;;6.53;1.92;;;;;;;;;;5067915;28;20390;-78
2022/07/28 13:51:53;;;;;;;3.92;1.48;;;;;;;;;;5070170;28;20120;-78
2022/07/28 13:54:20;;;;;;;4.32;1.52;;;;;;;;;;5068262;28;20108;-79
2022/07/28 13:56:46;;;;;;;5.10;1.50;;;;;;;;;;5070661;28;20047;-77
2022/07/28 13:59:12;;;;;;;7.82;1.63;;;;;;;;;;5071431;28;20029;-78
2022/07/28 14:01:40;;;;;;;2.65;1.00;;;;;;;;;;5068545;28;20025;-78
2022/07/28 14:04:06;;;;;;;5.20;1.80;;;;;;;;;;5068228;28;20052;-78
2022/07/28 14:06:32;;;;;;;8.68;1.88;;;;;;;;;;5058392;28;20029;-77
2022/07/28 14:08:59;;;;;;;4.45;1.50;;;;;;;;;;5071412;28;20362;-77
2022/07/28 14:11:25;;;;;;;4.88;1.77;;;;;;;;;;5071032;28;20479;-77
2022/07/28 14:13:51;;;;;;;3.85;1.50;;;;;;;;;;5068651;28;20032;-77
2022/07/28 14:16:18;;;;;;;5.88;1.48;;;;;;;;;;5067817;28;20017;-80
2022/07/28 14:18:45;;;;;;;5.85;1.60;;;;;;;;;;5068304;28;20021;-79
2022/07/28 14:21:11;;;;;;;8.02;2.03;;;;;;;;;;5071921;28;20108;-79
2022/07/28 14:23:37;;;;;;;7.60;1.63;;;;;;;;;;5075859;28;20028;-80
2022/07/28 14:26:03;;;;;;;7.20;1.73;;;;;;;;;;5074807;28;20024;-79
2022/07/28 14:28:29;;;;;;;5.97;1.50;;;;;;;;;;5074151;28;20089;-76
2022/07/28 14:30:56;;;;;;;3.15;1.27;;;;;;;;;;5073902;28;20059;-76
2022/07/28 14:33:22;;;;;;;4.47;1.20;;;;;;;;;;5075463;28;20507;-76
2022/07/28 14:35:48;;;;;;;5.22;1.55;;;;;;;;;;5074440;28;20112;-76
2022/07/28 14:38:14;;;;;;;6.72;1.27;;;;;;;;;;5071574;28;20428;-76
2022/07/28 14:40:40;;;;;;;6.25;1.13;;;;;;;;;;5071135;28;20032;-76
2022/07/28 14:43:07;;;;;;;7.75;1.58;;;;;;;;;;5074448;28;20032;-85
2022/07/28 14:45:33;;;;;;;3.47;1.33;;;;;;;;;;5072018;28;20025;-85
2022/07/28 14:47:59;;;;;;;3.40;1.30;;;;;;;;;;5067610;28;20078;-79